Time;durP1;ratioP1;P1;durP2;ratioP2;P2;SDS_P1;SDS_P2;PMS_P1;PMS_P2;Temp;Humidity;BMP_temperature;BMP_pressure;BME280_temperature;BME280_humidity;BME280_pressure;Samples;Min_cycle;Max_cycle;Signal;HPM_P1;HPM_P2
2022/05/12 00:00:15;;;;;;;4.47;3.80;;;22.40;30.70;;;;;;4967095;28;20976;-79
2022/05/12 00:02:42;;;;;;;6.70;4.43;;;22.40;30.70;;;;;;4961660;28;20961;-76
2022/05/12 00:05:09;;;;;;;4.87;4.10;;;22.40;30.70;;;;;;4954610;28;20616;-75
2022/05/12 00:07:37;;;;;;;7.53;4.63;;;22.40;30.70;;;;;;4945666;29;20553;-77
2022/05/12 00:10:06;;;;;;;4.60;4.20;;;22.40;30.70;;;;;;4940559;29;20487;-76
2022/05/12 00:12:34;;;;;;;4.90;4.40;;;22.50;31.20;;;;;;4950044;28;20503;-77
2022/05/12 00:15:02;;;;;;;6.00;4.00;;;22.50;31.50;;;;;;4946033;29;20548;-77
2022/05/12 00:17:28;;;;;;;5.50;4.40;;;22.50;31.90;;;;;;4939143;29;20462;-77
2022/05/12 00:19:55;;;;;;;4.37;4.07;;;22.50;32.40;;;;;;4943458;28;20960;-77
2022/05/12 00:22:22;;;;;;;7.30;4.30;;;22.40;32.70;;;;;;4959778;28;20522;-77
2022/05/12 00:24:49;;;;;;;3.77;3.57;;;22.40;33.00;;;;;;4955553;28;20573;-76
2022/05/12 00:27:16;;;;;;;5.83;4.97;;;22.40;33.10;;;;;;4941853;29;20468;-76
2022/05/12 00:29:44;;;;;;;4.33;3.97;;;22.40;33.50;;;;;;4943505;29;20474;-76
2022/05/12 00:32:11;;;;;;;4.30;4.00;;;22.40;33.80;;;;;;4960824;28;20463;-77
2022/05/12 00:34:38;;;;;;;4.30;4.00;;;22.40;33.90;;;;;;4963682;28;20908;-77
2022/05/12 00:37:05;;;;;;;7.87;4.53;;;22.40;34.30;;;;;;4954782;28;20501;-75
2022/05/12 00:39:32;;;;;;;4.37;3.80;;;22.30;34.20;;;;;;4945757;29;21012;-76
2022/05/12 00:41:59;;;;;;;4.83;4.43;;;22.30;34.40;;;;;;4944191;29;20454;-75
2022/05/12 00:44:26;;;;;;;5.00;3.90;;;22.20;34.50;;;;;;4942616;29;20492;-76
2022/05/12 00:46:54;;;;;;;9.33;4.00;;;22.10;34.70;;;;;;4941045;29;20457;-77
2022/05/12 00:49:26;;;;;;;3.80;3.50;;;22.10;34.90;;;;;;4941039;29;21013;-77
2022/05/12 00:51:58;;;;;;;5.90;3.90;;;22.00;35.00;;;;;;4952763;29;20449;-76
2022/05/12 00:54:29;;;;;;;4.37;4.07;;;21.90;35.30;;;;;;4956651;28;20572;-76
2022/05/12 00:56:57;;;;;;;7.07;4.30;;;21.80;35.30;;;;;;4958815;29;20461;-76
2022/05/12 00:59:28;;;;;;;4.07;3.67;;;21.80;35.20;;;;;;4945621;28;20793;-76
2022/05/12 01:01:57;;;;;;;4.83;4.00;;;21.80;34.70;;;;;;4946994;29;20461;-77
2022/05/12 01:04:26;;;;;;;3.93;3.37;;;21.80;34.50;;;;;;4940159;29;20590;-76
2022/05/12 01:06:53;;;;;;;6.00;3.80;;;21.80;34.10;;;;;;4940218;28;20465;-77
2022/05/12 01:09:21;;;;;;;3.93;3.30;;;21.80;33.90;;;;;;4938525;28;20496;-76
2022/05/12 01:11:49;;;;;;;4.23;3.40;;;21.80;33.70;;;;;;4939686;29;20465;-76
2022/05/12 01:14:16;;;;;;;3.83;3.27;;;21.80;33.20;;;;;;4939280;29;20461;-76
2022/05/12 01:16:46;;;;;;;4.30;3.23;;;21.80;32.80;;;;;;4939559;29;20806;-76
2022/05/12 01:19:18;;;;;;;3.50;3.13;;;21.80;32.30;;;;;;4955008;29;20508;-77
2022/05/12 01:21:47;;;;;;;4.57;3.03;;;21.80;32.00;;;;;;4976316;28;20551;-75
2022/05/12 01:24:17;;;;;;;3.43;2.60;;;21.80;31.90;;;;;;4965366;28;20475;-77
2022/05/12 01:26:43;;;;;;;3.33;2.93;;;21.70;31.80;;;;;;4978794;28;20460;-76
2022/05/12 01:29:11;;;;;;;3.87;3.23;;;21.70;32.00;;;;;;4978196;28;20504;-76
2022/05/12 01:31:38;;;;;;;3.17;2.83;;;21.70;31.90;;;;;;4978528;28;20486;-76
2022/05/12 01:34:07;;;;;;;5.20;2.57;;;21.60;31.60;;;;;;4974177;28;20489;-77
2022/05/12 01:36:35;;;;;;;4.13;2.90;;;21.60;31.50;;;;;;4974487;28;20535;-75
2022/05/12 01:39:02;;;;;;;3.90;3.03;;;21.60;31.70;;;;;;4939772;28;20499;-76
2022/05/12 01:41:30;;;;;;;3.10;2.70;;;21.60;31.80;;;;;;4944159;29;20904;-76
2022/05/12 01:43:57;;;;;;;4.83;2.87;;;21.50;31.90;;;;;;4938094;29;20554;-77
2022/05/12 01:46:24;;;;;;;3.00;2.60;;;21.50;32.20;;;;;;4938155;29;20472;-75
2022/05/12 01:48:51;;;;;;;3.03;2.40;;;21.40;32.10;;;;;;4952719;29;20839;-75
2022/05/12 01:51:18;;;;;;;3.30;2.80;;;21.40;32.20;;;;;;4956621;28;20499;-77
2022/05/12 01:53:45;;;;;;;2.87;2.67;;;21.40;32.20;;;;;;4954409;28;20502;-76
2022/05/12 01:56:13;;;;;;;9.50;3.23;;;21.30;32.50;;;;;;4956807;28;20464;-76
2022/05/12 01:58:42;;;;;;;3.23;2.83;;;21.30;32.60;;;;;;4940125;28;20509;-76
2022/05/12 02:01:11;;;;;;;3.10;2.90;;;21.20;32.90;;;;;;4941883;29;20480;-75
2022/05/12 02:03:38;;;;;;;5.03;2.70;;;21.20;33.40;;;;;;4943687;28;20831;-75
2022/05/12 02:06:05;;;;;;;3.03;2.80;;;21.20;33.90;;;;;;4948248;29;20525;-75
2022/05/12 02:08:32;;;;;;;4.73;3.07;;;21.20;34.20;;;;;;4952045;29;20517;-76
2022/05/12 02:10:59;;;;;;;4.93;2.60;;;21.10;34.50;;;;;;4957136;28;20440;-76
2022/05/12 02:13:27;;;;;;;4.87;3.10;;;21.10;34.70;;;;;;4956929;28;20463;-76
2022/05/12 02:15:57;;;;;;;3.27;2.40;;;21.10;35.00;;;;;;4953252;28;21013;-76
2022/05/12 02:18:24;;;;;;;3.23;2.90;;;21.10;35.20;;;;;;4938822;28;20456;-77
2022/05/12 02:20:52;;;;;;;4.13;3.10;;;21.10;35.50;;;;;;4950345;29;20451;-76
2022/05/12 02:23:19;;;;;;;6.17;3.03;;;21.00;35.60;;;;;;4960383;28;20524;-77
2022/05/12 02:25:46;;;;;;;4.40;2.80;;;21.00;35.70;;;;;;4959581;28;20462;-77
2022/05/12 02:28:14;;;;;;;4.97;2.63;;;20.90;36.00;;;;;;4961260;28;20444;-75
2022/05/12 02:30:41;;;;;;;5.43;3.57;;;20.90;36.20;;;;;;4956252;28;20561;-76
2022/05/12 02:33:09;;;;;;;2.70;2.50;;;20.80;36.20;;;;;;4941679;29;20483;-76
2022/05/12 02:35:38;;;;;;;7.10;3.00;;;20.70;36.50;;;;;;4956379;29;20511;-75
2022/05/12 02:38:05;;;;;;;2.87;2.57;;;20.60;36.80;;;;;;4955772;28;20843;-74
2022/05/12 02:40:33;;;;;;;2.80;2.60;;;20.50;36.60;;;;;;4956618;28;20925;-76
2022/05/12 02:42:59;;;;;;;3.77;2.60;;;20.50;36.70;;;;;;4946314;28;20549;-75
2022/05/12 02:45:27;;;;;;;3.63;2.53;;;20.50;36.50;;;;;;4937457;28;21002;-76
2022/05/12 02:47:54;;;;;;;3.10;2.60;;;20.50;36.50;;;;;;4947000;28;20442;-76
2022/05/12 02:50:23;;;;;;;2.83;2.63;;;20.50;36.50;;;;;;4957934;28;20996;-76
2022/05/12 02:52:51;;;;;;;4.50;2.70;;;20.40;36.50;;;;;;4961371;28;20455;-75
2022/05/12 02:55:17;;;;;;;3.67;2.90;;;20.30;36.60;;;;;;4966318;28;20975;-77
2022/05/12 02:57:44;;;;;;;3.20;2.30;;;20.30;36.80;;;;;;4966659;28;20456;-75
2022/05/12 03:00:17;;;;;;;3.87;2.17;;;20.20;36.80;;;;;;4973038;28;20509;-76
2022/05/12 03:02:45;;;;;;;2.30;2.10;;;20.20;37.00;;;;;;4975904;28;20463;-79
2022/05/12 03:05:12;;;;;;;5.60;2.47;;;20.20;36.90;;;;;;4977675;28;20497;-79
2022/05/12 03:07:40;;;;;;;2.73;2.20;;;20.20;37.10;;;;;;4969666;28;20457;-74
2022/05/12 03:10:08;;;;;;;3.73;2.00;;;20.10;37.00;;;;;;4973023;28;20483;-75
2022/05/12 03:12:36;;;;;;;2.40;2.20;;;20.10;37.10;;;;;;4974479;28;20438;-75
2022/05/12 03:15:03;;;;;;;2.13;1.93;;;20.00;37.10;;;;;;4960330;28;20523;-73
2022/05/12 03:17:31;;;;;;;4.37;2.20;;;20.00;37.10;;;;;;4962925;28;20461;-74
2022/05/12 03:19:57;;;;;;;7.33;1.90;;;20.00;37.30;;;;;;4980108;28;20477;-74
2022/05/12 03:22:24;;;;;;;6.13;2.00;;;19.90;37.30;;;;;;4978038;28;20440;-77
2022/05/12 03:24:53;;;;;;;4.83;2.10;;;19.90;37.50;;;;;;4977351;29;20925;-77
2022/05/12 03:27:20;;;;;;;3.17;1.60;;;19.80;37.70;;;;;;4975779;28;20472;-76
2022/05/12 03:29:47;;;;;;;2.30;1.83;;;19.80;37.90;;;;;;4968672;28;20485;-76
2022/05/12 03:32:14;;;;;;;2.50;1.93;;;19.80;37.90;;;;;;4958954;28;20463;-76
2022/05/12 03:34:41;;;;;;;7.03;2.63;;;19.70;38.50;;;;;;4942098;29;20905;-76
2022/05/12 03:37:10;;;;;;;2.23;1.90;;;19.60;38.40;;;;;;4945066;28;20432;-76
2022/05/12 03:39:39;;;;;;;3.63;1.87;;;19.60;38.40;;;;;;4962594;28;20492;-75
2022/05/12 03:42:10;;;;;;;1.70;1.60;;;19.50;38.30;;;;;;4961015;28;20536;-76
2022/05/12 03:44:50;;;;;;;2.67;1.93;;;19.50;38.30;;;;;;4947367;29;20562;-77
2022/05/12 03:47:20;;;;;;;1.80;1.70;;;19.50;38.30;;;;;;4942467;28;20469;-76
2022/05/12 03:49:47;;;;;;;3.83;2.07;;;19.40;38.20;;;;;;4945114;29;20482;-75
2022/05/12 03:52:15;;;;;;;9.73;2.40;;;19.30;38.50;;;;;;4964110;29;20476;-74
2022/05/12 03:54:42;;;;;;;1.70;1.60;;;19.30;38.90;;;;;;4974445;28;20462;-74
2022/05/12 03:57:11;;;;;;;2.90;2.10;;;19.30;39.00;;;;;;4968114;28;20455;-78
2022/05/12 03:59:39;;;;;;;1.60;1.50;;;19.30;39.40;;;;;;4952665;29;20909;-75
2022/05/12 04:02:06;;;;;;;3.97;2.23;;;19.20;39.50;;;;;;4943681;28;20533;-74
2022/05/12 04:04:33;;;;;;;7.60;1.83;;;19.10;39.80;;;;;;4950438;29;20454;-74
2022/05/12 04:07:00;;;;;;;7.73;2.27;;;19.10;40.00;;;;;;4958951;28;20458;-76
2022/05/12 04:09:28;;;;;;;2.30;2.10;;;19.10;40.10;;;;;;4959225;28;20485;-75
2022/05/12 04:11:55;;;;;;;3.90;1.80;;;19.10;40.10;;;;;;4953559;28;20561;-75
2022/05/12 04:14:24;;;;;;;2.00;1.83;;;19.10;40.20;;;;;;4940189;29;20468;-78
2022/05/12 04:16:50;;;;;;;1.70;1.60;;;19.10;40.20;;;;;;4939148;29;20490;-76
2022/05/12 04:19:17;;;;;;;4.30;1.70;;;19.10;40.20;;;;;;4938468;29;20490;-75
2022/05/12 04:21:44;;;;;;;4.77;1.67;;;19.10;40.40;;;;;;4945236;28;20469;-76
2022/05/12 04:24:11;;;;;;;4.90;2.03;;;19.10;40.60;;;;;;4959145;28;20461;-77
2022/05/12 04:26:40;;;;;;;2.13;1.83;;;19.10;40.60;;;;;;4950471;28;20532;-75
2022/05/12 04:29:08;;;;;;;3.00;1.60;;;19.20;40.60;;;;;;4944606;29;20478;-75
2022/05/12 04:31:36;;;;;;;2.00;1.80;;;19.20;40.60;;;;;;4967080;29;20469;-76
2022/05/12 04:36:48;;;;;;;5.10;1.67;;;19.40;40.50;;;;;;4968694;29;20461;-76
2022/05/12 04:39:17;;;;;;;3.77;1.50;;;19.60;40.10;;;;;;4957675;28;20462;-74
2022/05/12 04:41:44;;;;;;;2.50;1.73;;;19.80;39.70;;;;;;4975686;28;20457;-77
2022/05/12 04:44:12;;;;;;;6.00;1.90;;;19.90;39.60;;;;;;4975644;28;20476;-76
2022/05/12 04:46:42;;;;;;;2.07;1.87;;;20.00;39.40;;;;;;4957045;28;20489;-76
2022/05/12 04:49:13;;;;;;;1.83;1.63;;;19.90;39.60;;;;;;4958987;29;20522;-75
2022/05/12 04:51:40;;;;;;;1.93;1.73;;;19.90;40.10;;;;;;4975665;28;20514;-74
2022/05/12 04:54:09;;;;;;;8.47;2.50;;;19.80;40.30;;;;;;4975433;28;20484;-75
2022/05/12 04:56:37;;;;;;;10.60;2.73;;;19.80;40.60;;;;;;4975133;28;20424;-74
2022/05/12 04:59:05;;;;;;;5.20;2.13;;;19.70;40.70;;;;;;4961620;28;20492;-73
2022/05/12 05:01:32;;;;;;;3.53;2.00;;;19.70;40.90;;;;;;4958878;28;20455;-75
2022/05/12 05:04:01;;;;;;;3.70;2.23;;;19.60;41.20;;;;;;4960395;29;20502;-75
2022/05/12 05:06:28;;;;;;;3.67;2.10;;;19.60;41.50;;;;;;4958168;29;20521;-76
2022/05/12 05:08:55;;;;;;;7.77;2.10;;;19.60;41.60;;;;;;4957841;29;20446;-74
2022/05/12 05:11:22;;;;;;;2.73;2.30;;;19.50;41.80;;;;;;4949825;29;20951;-77
2022/05/12 05:13:49;;;;;;;2.00;1.80;;;19.50;41.90;;;;;;4946317;29;20458;-76
2022/05/12 05:16:17;;;;;;;3.10;1.60;;;19.50;41.80;;;;;;4941111;29;20432;-75
2022/05/12 05:18:44;;;;;;;3.20;1.67;;;19.50;41.80;;;;;;4944012;29;20520;-75
2022/05/12 05:21:13;;;;;;;3.00;1.90;;;19.50;41.60;;;;;;4984939;23;20572;-73
2022/05/12 05:23:40;;;;;;;4.07;1.80;;;19.60;41.60;;;;;;4955684;28;20457;-74
2022/05/12 05:26:08;;;;;;;2.10;1.27;;;19.60;41.40;;;;;;4955940;28;20474;-72
2022/05/12 05:28:36;;;;;;;2.13;1.67;;;19.70;41.50;;;;;;4955197;28;20458;-73
2022/05/12 05:31:03;;;;;;;3.97;1.87;;;19.70;41.10;;;;;;4955295;28;20481;-73
2022/05/12 05:33:30;;;;;;;3.07;1.70;;;19.70;41.20;;;;;;4955013;28;20833;-73
2022/05/12 05:35:58;;;;;;;3.83;1.57;;;19.80;41.30;;;;;;4955499;28;20458;-73
2022/05/12 05:38:29;;;;;;;1.83;1.60;;;19.90;40.90;;;;;;4955280;28;20461;-74
2022/05/12 05:40:56;;;;;;;1.27;1.17;;;19.90;40.80;;;;;;4955554;28;20564;-76
2022/05/12 05:43:23;;;;;;;8.03;1.50;;;19.90;40.80;;;;;;4955757;28;20485;-73
2022/05/12 05:45:50;;;;;;;2.67;1.53;;;19.90;40.70;;;;;;4955089;28;20533;-74
2022/05/12 05:48:18;;;;;;;2.50;1.67;;;20.00;40.70;;;;;;4951740;28;20465;-73
2022/05/12 05:53:35;;;;;;;1.50;1.43;;;20.00;40.50;;;;;;4945669;29;20804;-72
2022/05/12 05:56:04;;;;;;;3.40;1.60;;;20.20;40.20;;;;;;4939055;28;20792;-74
2022/05/12 05:58:31;;;;;;;3.00;1.83;;;20.40;39.60;;;;;;4943145;29;20474;-74
2022/05/12 06:01:12;;;;;;;2.17;1.60;;;20.50;39.30;;;;;;4947131;28;20832;-74
2022/05/12 06:03:40;;;;;;;4.30;2.23;;;20.80;39.50;;;;;;4955432;29;20808;-73
2022/05/12 06:06:07;;;;;;;1.97;1.77;;;20.70;39.50;;;;;;4956593;29;20891;-72
2022/05/12 06:08:36;;;;;;;3.33;1.70;;;20.50;39.30;;;;;;4967810;28;20452;-74
2022/05/12 06:11:04;;;;;;;2.30;1.50;;;20.40;39.50;;;;;;4948073;29;20529;-73
2022/05/12 06:13:33;;;;;;;1.70;1.60;;;20.40;39.90;;;;;;4957976;28;20482;-74
2022/05/12 06:16:00;;;;;;;3.17;1.90;;;20.50;39.30;;;;;;4945464;28;20826;-73
2022/05/12 06:18:27;;;;;;;1.50;1.23;;;20.30;40.10;;;;;;4950738;29;20459;-72
2022/05/12 06:20:54;;;;;;;1.63;1.53;;;20.30;40.10;;;;;;4967983;28;20487;-75
2022/05/12 06:23:21;;;;;;;1.50;1.40;;;20.20;40.40;;;;;;4973321;28;20500;-74
2022/05/12 06:25:50;;;;;;;1.70;1.33;;;20.30;40.20;;;;;;4973469;28;20494;-74
2022/05/12 06:28:17;;;;;;;2.20;1.53;;;20.40;40.30;;;;;;4974783;28;20500;-73
2022/05/12 06:30:45;;;;;;;4.40;1.80;;;20.50;39.90;;;;;;4971961;28;20452;-74
2022/05/12 06:33:17;;;;;;;7.60;1.83;;;20.60;39.40;;;;;;4969017;28;20485;-74
2022/05/12 06:35:44;;;;;;;3.53;1.77;;;20.60;39.40;;;;;;4947038;28;20440;-74
2022/05/12 06:38:11;;;;;;;2.97;1.47;;;20.70;39.70;;;;;;4951620;29;20462;-73
2022/05/12 06:40:38;;;;;;;1.90;1.37;;;20.70;39.50;;;;;;4954421;28;20518;-76
2022/05/12 06:43:08;;;;;;;9.17;2.57;;;20.90;39.60;;;;;;4950240;28;20489;-73
2022/05/12 06:45:36;;;;;;;3.07;1.73;;;21.10;39.80;;;;;;4962447;28;20473;-72
2022/05/12 06:48:03;;;;;;;8.30;1.87;;;21.30;38.20;;;;;;4965935;28;20439;-73
2022/05/12 06:50:31;;;;;;;3.83;2.80;;;21.30;38.20;;;;;;4941465;29;20947;-74
2022/05/12 06:52:59;;;;;;;2.83;1.93;;;21.10;38.90;;;;;;4958141;28;20458;-73
2022/05/12 06:55:27;;;;;;;3.83;1.70;;;21.30;38.90;;;;;;4956697;28;20481;-75
2022/05/12 06:57:55;;;;;;;3.30;1.60;;;21.50;38.80;;;;;;4958583;28;20548;-73
2022/05/12 07:00:23;;;;;;;5.13;1.80;;;21.70;39.50;;;;;;4956536;28;20573;-73
2022/05/12 07:02:51;;;;;;;2.30;1.73;;;21.70;38.60;;;;;;4958130;28;20976;-74
2022/05/12 07:05:21;;;;;;;4.80;2.37;;;21.80;38.00;;;;;;4951169;28;20470;-74
2022/05/12 07:07:48;;;;;;;3.40;1.67;;;21.90;37.60;;;;;;4938678;29;20471;-75
2022/05/12 07:10:16;;;;;;;3.53;1.87;;;22.00;36.30;;;;;;4945349;29;21012;-74
2022/05/12 07:12:43;;;;;;;4.63;1.37;;;22.00;35.50;;;;;;4958484;28;20461;-74
2022/05/12 07:15:11;;;;;;;3.07;1.33;;;21.80;35.20;;;;;;4957673;28;20437;-74
2022/05/12 07:17:42;;;;;;;5.30;1.60;;;21.50;35.80;;;;;;4957601;28;20463;-74
2022/05/12 07:28:23;;;;;;;6.03;1.80;;;20.90;38.20;;;;;;4945821;29;20438;-74
2022/05/12 07:31:02;;;;;;;2.93;1.30;;;21.00;38.10;;;;;;4939028;28;20491;-75
2022/05/12 07:33:31;;;;;;;4.47;1.63;;;21.20;37.80;;;;;;4963899;28;20485;-75
2022/05/12 07:35:58;;;;;;;4.67;1.87;;;21.10;37.60;;;;;;4957341;28;20460;-74
2022/05/12 07:38:25;;;;;;;1.80;1.20;;;21.20;37.90;;;;;;4946262;28;20458;-74
2022/05/12 07:40:52;;;;;;;2.10;1.30;;;21.20;37.40;;;;;;4947309;29;20828;-74
2022/05/12 07:43:19;;;;;;;1.50;1.40;;;21.20;37.50;;;;;;4940277;28;20444;-77
2022/05/12 07:45:45;;;;;;;1.47;1.37;;;21.30;37.30;;;;;;4946112;28;20482;-73
2022/05/12 07:48:13;;;;;;;3.80;1.50;;;21.40;37.50;;;;;;4964029;28;20914;-76
2022/05/12 07:50:41;;;;;;;2.50;1.23;;;21.60;37.10;;;;;;4957443;28;20488;-75
2022/05/12 07:53:09;;;;;;;3.97;1.60;;;21.60;36.20;;;;;;4957841;28;20455;-73
2022/05/12 07:55:36;;;;;;;3.60;1.43;;;21.60;36.00;;;;;;4943196;28;20462;-74
2022/05/12 07:58:04;;;;;;;4.50;2.17;;;21.60;36.50;;;;;;4943210;29;20814;-75
2022/05/12 08:00:31;;;;;;;4.60;1.50;;;21.60;36.60;;;;;;4956350;28;20491;-73
2022/05/12 08:02:59;;;;;;;2.33;1.37;;;21.60;36.40;;;;;;4951700;28;20461;-75
2022/05/12 08:05:26;;;;;;;4.27;1.90;;;21.70;36.50;;;;;;4937482;28;20995;-74
2022/05/12 08:07:55;;;;;;;3.03;1.50;;;21.80;36.30;;;;;;4949858;29;20590;-73
2022/05/12 08:10:23;;;;;;;2.20;1.27;;;21.90;36.30;;;;;;4958621;28;20490;-74
2022/05/12 08:12:50;;;;;;;4.43;1.43;;;22.10;36.40;;;;;;4956552;28;20818;-74
2022/05/12 08:15:18;;;;;;;4.53;1.63;;;22.00;36.40;;;;;;4958555;28;20469;-75
2022/05/12 08:17:45;;;;;;;4.93;1.50;;;21.90;36.40;;;;;;4954916;28;20825;-75
2022/05/12 08:20:14;;;;;;;6.50;1.60;;;22.10;36.10;;;;;;4958144;28;20551;-73
2022/05/12 08:22:41;;;;;;;5.17;2.43;;;22.20;35.70;;;;;;4949407;28;20501;-73
2022/05/12 08:25:10;;;;;;;1.63;1.10;;;22.10;35.50;;;;;;4938435;29;20468;-74
2022/05/12 08:27:38;;;;;;;1.50;1.40;;;22.00;35.90;;;;;;4945109;29;20567;-73
2022/05/12 08:30:11;;;;;;;8.23;1.73;;;22.10;36.20;;;;;;4957785;28;20473;-76
2022/05/12 08:32:38;;;;;;;1.93;1.40;;;22.20;36.00;;;;;;4958550;28;20460;-74
2022/05/12 08:35:05;;;;;;;2.93;1.67;;;22.30;35.60;;;;;;4957567;28;20485;-74
2022/05/12 08:37:32;;;;;;;3.60;1.80;;;22.40;34.90;;;;;;4957856;28;20520;-74
2022/05/12 08:39:59;;;;;;;2.30;1.30;;;22.20;35.10;;;;;;4958254;28;20965;-74
2022/05/12 08:42:32;;;;;;;2.03;1.53;;;22.20;35.70;;;;;;4970917;28;20476;-75
2022/05/12 08:45:00;;;;;;;3.37;1.67;;;22.10;35.70;;;;;;4974679;28;20818;-76
2022/05/12 08:47:31;;;;;;;4.40;1.37;;;22.30;35.80;;;;;;4973637;28;20476;-81
2022/05/12 08:50:01;;;;;;;5.30;1.57;;;22.50;35.20;;;;;;4974139;28;20478;-72
2022/05/12 08:52:37;;;;;;;3.43;1.80;;;22.60;34.80;;;;;;4938111;29;20462;-74
2022/05/12 08:55:11;;;;;;;2.43;1.30;;;22.80;34.70;;;;;;4954462;29;20489;-75
2022/05/12 08:57:43;;;;;;;6.10;1.90;;;22.90;33.50;;;;;;4956509;28;20449;-74
2022/05/12 09:00:15;;;;;;;2.80;1.57;;;22.70;33.70;;;;;;4956190;28;20484;-75
2022/05/12 09:02:52;;;;;;;1.77;1.40;;;22.60;34.10;;;;;;4957719;28;20917;-73
2022/05/12 09:05:22;;;;;;;6.60;1.90;;;22.70;34.20;;;;;;4953535;28;20465;-72
2022/05/12 09:07:55;;;;;;;2.90;1.87;;;23.00;33.30;;;;;;4941040;29;20524;-72
2022/05/12 09:10:41;;;;;;;2.07;1.63;;;23.10;33.00;;;;;;4939714;29;20983;-73
2022/05/12 09:13:14;;;;;;;7.93;2.90;;;23.00;33.10;;;;;;4940824;29;20473;-72
2022/05/12 09:15:47;;;;;;;2.80;1.70;;;23.30;32.00;;;;;;4955870;28;20439;-74
2022/05/12 09:18:18;;;;;;;2.60;1.70;;;23.30;31.50;;;;;;4954815;28;20476;-75
2022/05/12 09:20:45;;;;;;;3.87;1.93;;;23.60;31.90;;;;;;4944528;28;20568;-75
2022/05/12 09:23:12;;;;;;;3.57;1.83;;;23.70;31.90;;;;;;4954637;28;20827;-73
2022/05/12 09:25:41;;;;;;;1.93;1.80;;;23.70;31.90;;;;;;4955979;28;20565;-73
2022/05/12 09:28:19;;;;;;;3.00;1.77;;;23.80;32.00;;;;;;4955232;28;20584;-73
2022/05/12 09:30:48;;;;;;;6.37;1.40;;;23.80;32.00;;;;;;4947194;28;20477;-75
2022/05/12 09:33:24;;;;;;;3.20;1.97;;;24.00;32.20;;;;;;4942176;29;20536;-76
2022/05/12 09:35:56;;;;;;;3.60;1.67;;;24.40;31.50;;;;;;4956714;28;20468;-76
2022/05/12 09:38:26;;;;;;;4.43;1.80;;;24.60;31.10;;;;;;4957176;28;20457;-75
2022/05/12 09:40:53;;;;;;;2.60;1.93;;;24.60;30.30;;;;;;4956047;28;20489;-74
2022/05/12 09:43:28;;;;;;;6.60;2.07;;;23.80;32.00;;;;;;4957009;28;20461;-74
2022/05/12 09:46:08;;;;;;;2.40;1.83;;;23.30;31.60;;;;;;4956244;28;20419;-73
2022/05/12 09:48:41;;;;;;;3.93;2.13;;;23.30;31.60;;;;;;4949444;28;20492;-74
2022/05/12 09:51:22;;;;;;;8.50;2.30;;;23.20;32.20;;;;;;4936824;29;21000;-76
2022/05/12 09:53:50;;;;;;;4.63;2.00;;;23.50;31.80;;;;;;4945143;29;20548;-74
2022/05/12 09:56:31;;;;;;;5.57;1.63;;;23.70;31.90;;;;;;4958657;28;20512;-72
2022/05/12 09:59:17;;;;;;;3.17;1.97;;;23.80;32.00;;;;;;4958098;28;21000;-74
2022/05/12 10:01:53;;;;;;;2.90;1.70;;;23.90;31.40;;;;;;4959701;28;20469;-74
2022/05/12 10:09:59;;;;;;;2.80;1.87;;;24.30;30.70;;;;;;4940661;29;20480;-73
2022/05/12 10:12:31;;;;;;;3.67;1.50;;;24.20;30.00;;;;;;4936788;29;20881;-73
2022/05/12 10:15:03;;;;;;;1.80;1.50;;;24.30;30.10;;;;;;4937523;29;20546;-74
2022/05/12 10:17:35;;;;;;;4.70;1.87;;;24.10;30.60;;;;;;4935903;29;20433;-75
2022/05/12 10:20:08;;;;;;;2.20;1.93;;;24.40;30.40;;;;;;4937651;29;20654;-75
2022/05/12 10:22:40;;;;;;;4.60;1.93;;;24.70;29.00;;;;;;4939155;29;20821;-72
2022/05/12 10:25:21;;;;;;;3.30;1.90;;;24.50;29.70;;;;;;4939822;29;20463;-74
2022/05/12 10:27:53;;;;;;;2.37;1.83;;;24.90;28.60;;;;;;4943314;29;20820;-73
2022/05/12 10:30:33;;;;;;;4.33;1.93;;;25.20;28.50;;;;;;4959150;28;20464;-73
2022/05/12 10:33:18;;;;;;;3.20;1.80;;;25.10;28.40;;;;;;4959365;28;20528;-73
2022/05/12 10:35:53;;;;;;;2.00;1.73;;;24.90;28.70;;;;;;4959346;28;20469;-73
2022/05/12 10:38:30;;;;;;;4.10;1.70;;;24.90;29.00;;;;;;4949679;28;20453;-72
2022/05/12 10:41:03;;;;;;;2.07;1.67;;;24.50;29.10;;;;;;4939592;29;20525;-72
2022/05/12 10:43:57;;;;;;;3.80;1.60;;;24.30;29.60;;;;;;4951620;28;20556;-72
2022/05/12 10:46:38;;;;;;;2.87;1.90;;;24.30;29.90;;;;;;4958515;28;20447;-73
2022/05/12 10:49:19;;;;;;;2.33;2.07;;;24.20;29.60;;;;;;4958326;28;20502;-73
2022/05/12 10:51:56;;;;;;;2.20;1.80;;;23.90;30.60;;;;;;4939788;29;20934;-75
2022/05/12 10:54:31;;;;;;;3.93;2.17;;;23.80;31.30;;;;;;4941050;29;21009;-72
2022/05/12 10:57:10;;;;;;;1.80;1.70;;;24.00;30.60;;;;;;4948564;29;20467;-73
2022/05/12 10:59:59;;;;;;;3.77;2.00;;;24.20;30.30;;;;;;4972230;28;20448;-77
2022/05/12 11:02:41;;;;;;;1.90;1.80;;;24.30;30.40;;;;;;4976806;28;20461;-76
2022/05/12 11:05:17;;;;;;;2.23;1.67;;;24.60;29.50;;;;;;4972573;28;20421;-77
2022/05/12 11:07:49;;;;;;;3.60;1.80;;;24.70;29.70;;;;;;4965595;28;20485;-75
2022/05/12 11:10:27;;;;;;;2.20;1.97;;;24.50;29.50;;;;;;4955173;29;20573;-72
2022/05/12 11:13:00;;;;;;;5.23;2.20;;;24.30;29.80;;;;;;4940789;29;20534;-73
2022/05/12 11:15:30;;;;;;;1.90;1.73;;;24.40;29.50;;;;;;4955069;29;20934;-74
2022/05/12 11:18:04;;;;;;;6.20;1.97;;;24.20;30.00;;;;;;4960808;28;20454;-77
2022/05/12 11:20:33;;;;;;;2.07;1.70;;;24.30;30.20;;;;;;4948754;28;21066;-76
2022/05/12 11:23:16;;;;;;;3.60;2.37;;;24.30;30.10;;;;;;4951641;29;20409;-75
2022/05/12 11:25:54;;;;;;;3.23;2.20;;;24.30;29.60;;;;;;4942833;29;20497;-75
2022/05/12 11:31:21;;;;;;;2.60;1.80;;;24.30;29.50;;;;;;4961660;28;20924;-76
2022/05/12 11:33:52;;;;;;;1.70;1.60;;;24.60;29.60;;;;;;4962819;28;20461;-76
2022/05/12 11:36:19;;;;;;;1.80;1.63;;;24.90;28.90;;;;;;4961754;28;20575;-75
2022/05/12 11:38:51;;;;;;;5.80;2.60;;;25.10;28.70;;;;;;4952626;28;20808;-75
2022/05/12 11:41:40;;;;;;;2.20;2.00;;;25.20;28.60;;;;;;4947194;29;20474;-75
2022/05/12 11:44:34;;;;;;;3.50;2.00;;;25.30;28.20;;;;;;4968408;23;20452;-74
2022/05/12 11:47:40;;;;;;;2.83;1.70;;;25.00;28.30;;;;;;4957837;28;20500;-74
2022/05/12 11:50:27;;;;;;;4.13;2.00;;;24.90;28.50;;;;;;4929918;28;20782;-73
2022/05/12 11:53:01;;;;;;;4.13;1.97;;;25.10;28.50;;;;;;4959028;28;20823;-74
2022/05/12 11:55:31;;;;;;;3.70;2.00;;;25.20;27.90;;;;;;4946326;28;20444;-73
2022/05/12 11:58:04;;;;;;;4.80;2.67;;;24.90;28.40;;;;;;4939900;29;20452;-73
2022/05/12 12:01:06;;;;;;;4.60;2.00;;;25.10;28.10;;;;;;4939391;29;20458;-72
2022/05/12 12:03:58;;;;;;;2.67;2.07;;;24.80;28.30;;;;;;4879470;29;20445;-73
2022/05/12 12:06:52;;;;;;;5.10;1.80;;;24.80;28.30;;;;;;4860959;29;20474;-73
2022/05/12 12:09:51;;;;;;;8.63;1.93;;;24.60;28.80;;;;;;4877558;29;20702;-75
2022/05/12 12:12:51;;;;;;;2.30;1.93;;;25.00;28.80;;;;;;4878305;29;20884;-73
2022/05/12 12:15:42;;;;;;;2.00;1.90;;;25.40;27.80;;;;;;4880204;29;20481;-73
2022/05/12 12:18:52;;;;;;;2.83;2.00;;;25.20;28.30;;;;;;4885642;29;20458;-73
2022/05/12 12:21:54;;;;;;;3.47;2.30;;;25.20;28.40;;;;;;4885763;29;20821;-74
2022/05/12 12:24:49;;;;;;;4.30;2.07;;;25.10;28.20;;;;;;4872242;29;20556;-74
2022/05/12 12:27:33;;;;;;;2.87;2.20;;;25.10;28.60;;;;;;4875259;29;20764;-74
2022/05/12 12:30:40;;;;;;;4.60;2.20;;;25.20;28.60;;;;;;4879973;29;20887;-74
2022/05/12 12:33:39;;;;;;;8.27;1.70;;;25.20;28.50;;;;;;4884507;29;20467;-76
2022/05/12 12:36:28;;;;;;;2.10;1.97;;;25.40;28.20;;;;;;4927900;29;20478;-74
2022/05/12 12:39:12;;;;;;;2.50;2.30;;;25.50;28.00;;;;;;4947090;29;20465;-75
2022/05/12 12:41:44;;;;;;;2.20;2.00;;;25.70;27.80;;;;;;4953357;29;20460;-75
2022/05/12 12:44:21;;;;;;;4.93;2.20;;;26.00;27.30;;;;;;4939110;29;21005;-75
2022/05/12 12:47:13;;;;;;;5.03;2.20;;;26.10;27.20;;;;;;4937458;29;20467;-74
2022/05/12 12:50:01;;;;;;;4.60;2.20;;;26.10;26.90;;;;;;4918817;29;20465;-75
2022/05/12 12:52:28;;;;;;;2.40;2.20;;;26.80;26.70;;;;;;4930810;29;20466;-75
2022/05/12 12:57:47;;;;;;;2.87;2.07;;;26.90;25.30;;;;;;4942234;29;20408;-77
2022/05/12 13:00:23;;;;;;;2.13;1.93;;;26.80;25.30;;;;;;4920776;29;20450;-76
2022/05/12 13:02:58;;;;;;;1.70;1.60;;;26.90;25.40;;;;;;4921522;29;20503;-75
2022/05/12 13:05:25;;;;;;;1.90;1.80;;;26.80;25.30;;;;;;4921636;29;21068;-75
2022/05/12 13:07:58;;;;;;;8.10;1.70;;;26.60;25.70;;;;;;4921131;29;20510;-74
2022/05/12 13:10:28;;;;;;;11.30;2.17;;;26.60;25.10;;;;;;4940321;29;20458;-74
2022/05/12 13:12:59;;;;;;;1.63;1.53;;;26.70;25.80;;;;;;4941695;29;20544;-75
2022/05/12 13:15:27;;;;;;;4.13;2.37;;;27.10;25.40;;;;;;4950623;29;20518;-75
2022/05/12 13:17:59;;;;;;;2.43;2.23;;;26.90;25.30;;;;;;4950782;29;20973;-73
2022/05/12 13:20:32;;;;;;;2.50;2.00;;;26.60;25.10;;;;;;4939428;29;20517;-74
2022/05/12 13:23:04;;;;;;;4.27;1.97;;;27.00;25.40;;;;;;4937917;29;20453;-74
2022/05/12 13:25:34;;;;;;;2.40;2.20;;;27.40;25.10;;;;;;4937147;29;20498;-76
2022/05/12 13:28:02;;;;;;;2.20;2.00;;;27.20;25.50;;;;;;4937248;28;20487;-75
2022/05/12 13:30:36;;;;;;;6.23;2.30;;;26.90;25.30;;;;;;4937061;29;20817;-76
2022/05/12 13:33:06;;;;;;;5.77;2.13;;;27.30;25.50;;;;;;4936493;29;20562;-76